Historique des mesures à Cassis (13260), France
Quotidien Résumé Fevrier 15, 2017 Unités:  US    Métrique   Métrique/US
« Précédent (Jour)
Suivant (Jour) »
Quotidien Hebdomadaire Mensuel Annuel Période au choix
  Maximum: Minimum: Moyenne:
Température: 32 °F 53.4 °F 57.6 °F
Point de rosée: 32 °F 42.1 °F 44.6 °F
Humidité: Humidity % 56 % 58 %
Vitesse du vent: WindSpeedKMH mph 0.0 mph 0.3 mph
Rafales: WindSpeedGustKMH mph - -
Vent:- - SE
Pression: 0 in 30.4 in -
Précipitations: 0 in    
Historical Graphs
 
 
Mesures pour : Fevrier 15, 2017
Heure Temperature Point de rosée Pression Vent Vitesse du vent Rafales Humidité Pluie (par heure) Conditions
32 °F 32 °F 0 in Calm     Humidity % 0 in SoftwareType W/m2
00:11 57.9 °F 42.8 °F 30.4 in Calm   8.7 mph 57 % 0 in open2300-1.11 W/m2
01:10 57.9 °F 42.3 °F 30.4 in Calm   4.3 mph 56 % 0 in open2300-1.11 W/m2
02:11 57.7 °F 42.1 °F 30.4 in Calm     56 % 0 in open2300-1.11 W/m2
03:10 57.4 °F 42.3 °F 30.4 in Calm     57 % 0 in open2300-1.11 W/m2
04:11 57.4 °F 42.3 °F 30.4 in Calm   3.5 mph 57 % 0 in open2300-1.11 W/m2
05:10 57.4 °F 42.8 °F 30.4 in ESE 2.6 mph 2.6 mph 58 % 0 in open2300-1.11 W/m2
06:11 57.6 °F 43 °F 30.4 in Calm   4.0 mph 58 % 0 in open2300-1.11 W/m2
07:10 57.6 °F 42.4 °F 30.4 in Calm   2.6 mph 57 % 0 in open2300-1.11 W/m2
08:11 57 °F 43 °F 30.4 in Calm     59 % 0 in open2300-1.11 W/m2
09:10 57.4 °F 43.7 °F 30.4 in Calm     60 % 0 in open2300-1.11 W/m2
10:11 58.6 °F 44.2 °F 30.5 in Calm     59 % 0 in open2300-1.11 W/m2
11:10 61.2 °F 45.9 °F 30.5 in Calm   4.0 mph 57 % 0 in open2300-1.11 W/m2
12:11 62.8 °F 47.3 °F 30.5 in Calm   1.1 mph 57 % 0 in open2300-1.11 W/m2
13:10 62.4 °F 47.5 °F 30.5 in SSE 4.0 mph 4.0 mph 58 % 0 in open2300-1.11 W/m2
14:11 63.1 °F 48 °F 30.4 in Calm     58 % 0 in open2300-1.11 W/m2
15:10 62.8 °F 48.2 °F 30.4 in Calm     59 % 0 in open2300-1.11 W/m2
16:11 62.4 °F 47.8 °F 30.4 in Calm     59 % 0 in open2300-1.11 W/m2
17:10 61.2 °F 48 °F 30.4 in Calm     62 % 0 in open2300-1.11 W/m2
18:11 59.7 °F 48.4 °F 30.4 in Calm     66 % 0 in open2300-1.11 W/m2
19:10 57.9 °F 47.5 °F 30.4 in Calm     68 % 0 in open2300-1.11 W/m2
20:11 55.4 °F 46.2 °F 30.4 in Calm     71 % 0 in open2300-1.11 W/m2
21:10 54.3 °F 45.9 °F 30.4 in Calm     73 % 0 in open2300-1.11 W/m2
22:11 53.4 °F 46 °F 30.4 in Calm     76 % 0 in open2300-1.11 W/m2
Observations météo à CASSIS
WU-History script by Weather Underground - 1 mb